Time;durP1;ratioP1;P1;durP2;ratioP2;P2;SDS_P1;SDS_P2;PMS_P1;PMS_P2;Temp;Humidity;BMP_temperature;BMP_pressure;BME280_temperature;BME280_humidity;BME280_pressure;Samples;Min_cycle;Max_cycle;Signal;HPM_P1;HPM_P2
2021/03/17 00:02:13;;;;;;;1.35;1.08;;;17.90;52.50;;;;;;4876706;29;20170;-66
2021/03/17 00:04:38;;;;;;;0.90;0.80;;;17.90;52.50;;;;;;4878284;29;20543;-66
2021/03/17 00:07:04;;;;;;;1.25;1.15;;;17.90;52.50;;;;;;4878551;29;20185;-73
2021/03/17 00:09:29;;;;;;;1.13;0.82;;;17.90;52.50;;;;;;4860884;29;20211;-71
2021/03/17 00:11:55;;;;;;;0.95;0.85;;;17.80;52.40;;;;;;4878370;29;20642;-65
2021/03/17 00:14:21;;;;;;;1.25;0.88;;;17.80;52.40;;;;;;4878138;29;20260;-66
2021/03/17 00:16:46;;;;;;;0.70;0.70;;;17.80;53.10;;;;;;4877907;29;20188;-76
2021/03/17 00:19:12;;;;;;;2.00;1.17;;;17.80;52.40;;;;;;4861895;29;20184;-69
2021/03/17 00:21:38;;;;;;;2.03;0.70;;;17.80;52.40;;;;;;4881480;29;20205;-64
2021/03/17 00:24:04;;;;;;;1.38;0.73;;;17.80;52.50;;;;;;4881045;29;20216;-72
2021/03/17 00:26:29;;;;;;;2.30;1.17;;;17.80;52.50;;;;;;4849251;29;20641;-64
2021/03/17 00:28:55;;;;;;;1.23;0.75;;;17.70;52.50;;;;;;4881567;29;20199;-73
2021/03/17 00:31:20;;;;;;;1.17;0.95;;;17.70;52.50;;;;;;4879576;29;20693;-64
2021/03/17 00:33:46;;;;;;;0.80;0.80;;;17.70;52.50;;;;;;4880373;29;20603;-71
2021/03/17 00:36:11;;;;;;;1.63;0.70;;;17.70;52.50;;;;;;4880812;29;20181;-72
2021/03/17 00:38:37;;;;;;;1.30;1.20;;;17.70;52.50;;;;;;4880051;29;20178;-66
2021/03/17 00:41:03;;;;;;;0.90;0.60;;;17.70;52.50;;;;;;4880139;29;20217;-74
2021/03/17 00:43:28;;;;;;;1.13;0.70;;;17.70;52.50;;;;;;4880420;29;20177;-70
2021/03/17 00:45:54;;;;;;;1.10;0.77;;;17.60;52.50;;;;;;4881359;29;20181;-65
2021/03/17 00:48:19;;;;;;;0.60;0.60;;;17.60;52.50;;;;;;4881158;29;20192;-64
2021/03/17 00:50:45;;;;;;;1.50;0.90;;;17.60;52.50;;;;;;4879433;29;20205;-64
2021/03/17 00:53:10;;;;;;;0.85;0.60;;;17.60;52.50;;;;;;4869887;29;20669;-68
2021/03/17 00:55:36;;;;;;;1.15;0.70;;;17.60;52.50;;;;;;4880967;29;20177;-72
2021/03/17 00:58:02;;;;;;;0.90;0.80;;;17.60;52.50;;;;;;4879341;29;20260;-67
2021/03/17 01:00:27;;;;;;;2.05;1.13;;;17.60;52.50;;;;;;4880742;29;20233;-68
2021/03/17 01:02:53;;;;;;;1.17;0.70;;;17.60;52.50;;;;;;4879818;29;20189;-72
2021/03/17 01:05:19;;;;;;;1.30;0.80;;;17.60;52.50;;;;;;4879992;29;20260;-67
2021/03/17 01:07:44;;;;;;;0.50;0.50;;;17.50;52.50;;;;;;4879937;29;20527;-68
2021/03/17 01:10:26;;;;;;;1.00;0.60;;;17.50;52.50;;;;;;4864052;29;20217;-71
2021/03/17 01:12:52;;;;;;;0.88;0.73;;;17.50;52.50;;;;;;4879190;29;20245;-67
2021/03/17 01:15:18;;;;;;;0.70;0.70;;;17.50;52.50;;;;;;4879610;29;20649;-67
2021/03/17 01:17:44;;;;;;;0.80;0.80;;;17.50;52.60;;;;;;4879751;29;20260;-74
2021/03/17 01:20:10;;;;;;;0.70;0.70;;;17.50;52.60;;;;;;4878928;29;20709;-66
2021/03/17 01:22:36;;;;;;;0.90;0.80;;;17.50;52.50;;;;;;4880415;29;20256;-65
2021/03/17 01:25:02;;;;;;;0.73;0.60;;;17.40;53.10;;;;;;4879379;29;20264;-65
2021/03/17 01:27:28;;;;;;;0.95;0.60;;;17.50;52.50;;;;;;4878686;29;20592;-65
2021/03/17 01:29:54;;;;;;;0.90;0.60;;;17.40;52.50;;;;;;4880296;29;20607;-68
2021/03/17 01:32:19;;;;;;;1.20;0.55;;;17.40;52.50;;;;;;4879062;29;20326;-72
2021/03/17 01:34:45;;;;;;;0.65;0.65;;;17.40;52.50;;;;;;4879709;29;20180;-68
2021/03/17 01:37:12;;;;;;;0.60;0.60;;;17.40;52.60;;;;;;4880286;29;20187;-70
2021/03/17 01:39:38;;;;;;;1.10;0.80;;;17.40;52.50;;;;;;4879537;29;20201;-67
2021/03/17 01:42:04;;;;;;;0.85;0.70;;;17.40;52.50;;;;;;4880263;29;20182;-67
2021/03/17 01:44:29;;;;;;;0.85;0.52;;;17.40;52.50;;;;;;4879885;29;20367;-65
2021/03/17 01:46:55;;;;;;;0.65;0.45;;;17.40;52.50;;;;;;4878413;29;20177;-66
2021/03/17 01:49:20;;;;;;;0.77;0.63;;;17.40;52.50;;;;;;4879866;29;20253;-66
2021/03/17 01:51:46;;;;;;;0.70;0.68;;;17.30;52.50;;;;;;4878927;29;20192;-75
2021/03/17 01:54:11;;;;;;;0.50;0.50;;;17.30;52.50;;;;;;4877980;29;20261;-74
2021/03/17 01:56:37;;;;;;;0.55;0.55;;;17.30;52.50;;;;;;4878812;29;20189;-67
2021/03/17 01:59:03;;;;;;;0.47;0.47;;;17.30;52.50;;;;;;4879007;29;20245;-70
2021/03/17 02:01:28;;;;;;;0.73;0.50;;;17.30;52.50;;;;;;4877973;29;20177;-66
2021/03/17 02:03:54;;;;;;;1.00;0.60;;;17.30;52.50;;;;;;4879776;29;20630;-69
2021/03/17 02:06:19;;;;;;;0.47;0.47;;;17.30;52.50;;;;;;4879608;29;20181;-72
2021/03/17 02:08:45;;;;;;;0.50;0.50;;;17.30;52.50;;;;;;4878156;29;20225;-74
2021/03/17 02:11:12;;;;;;;0.95;0.80;;;17.30;52.50;;;;;;4878591;29;20216;-76
2021/03/17 02:14:02;;;;;;;0.80;0.50;;;17.30;52.50;;;;;;4878332;29;20177;-66
2021/03/17 02:16:48;;;;;;;0.60;0.60;;;17.20;52.40;;;;;;4877921;29;20188;-67
2021/03/17 02:19:28;;;;;;;1.48;0.93;;;17.30;52.50;;;;;;4878647;29;20527;-68
2021/03/17 02:22:24;;;;;;;0.85;0.70;;;17.20;52.50;;;;;;4877849;29;20268;-74
2021/03/17 02:25:05;;;;;;;0.40;0.40;;;17.20;52.50;;;;;;4879437;29;20174;-74
2021/03/17 02:27:51;;;;;;;0.40;0.40;;;17.20;52.50;;;;;;4879247;29;20188;-73
2021/03/17 02:30:38;;;;;;;0.70;0.52;;;17.20;52.40;;;;;;4879096;29;20698;-66
2021/03/17 02:33:36;;;;;;;0.40;0.40;;;17.20;52.40;;;;;;4879337;29;20217;-75
2021/03/17 02:36:05;;;;;;;0.88;0.70;;;17.20;52.40;;;;;;4878765;29;20204;-72
2021/03/17 02:38:31;;;;;;;3.75;0.75;;;17.20;52.40;;;;;;4877885;29;20204;-67
2021/03/17 02:40:57;;;;;;;0.77;0.60;;;17.10;52.40;;;;;;4878115;29;20208;-74
2021/03/17 02:43:31;;;;;;;0.73;0.70;;;17.10;52.50;;;;;;4861378;29;20633;-73
2021/03/17 02:46:07;;;;;;;0.57;0.40;;;17.10;52.50;;;;;;4879164;29;20220;-65
2021/03/17 02:48:39;;;;;;;0.93;0.68;;;17.10;52.40;;;;;;4877843;29;20241;-72
2021/03/17 02:51:14;;;;;;;0.80;0.50;;;17.10;52.40;;;;;;4877342;29;20221;-68
2021/03/17 02:53:39;;;;;;;1.27;0.50;;;17.10;52.40;;;;;;4877441;29;20229;-65
2021/03/17 02:56:10;;;;;;;0.57;0.40;;;17.10;52.40;;;;;;4877885;29;20245;-65
2021/03/17 02:58:36;;;;;;;0.30;0.30;;;17.10;52.40;;;;;;4877183;29;20634;-74
2021/03/17 03:01:02;;;;;;;0.40;0.40;;;17.10;52.40;;;;;;4877821;29;20181;-74
2021/03/17 03:03:31;;;;;;;0.75;0.68;;;17.10;52.40;;;;;;4877599;29;20284;-70
2021/03/17 03:05:57;;;;;;;0.88;0.50;;;17.10;52.40;;;;;;4877261;29;20236;-74
2021/03/17 03:08:24;;;;;;;1.45;0.60;;;17.10;52.40;;;;;;4877402;29;20257;-75
2021/03/17 03:10:50;;;;;;;0.68;0.65;;;17.10;52.50;;;;;;4877644;29;20273;-76
2021/03/17 03:13:15;;;;;;;0.40;0.40;;;17.00;52.40;;;;;;4878386;29;20641;-69
2021/03/17 03:15:41;;;;;;;0.60;0.60;;;17.00;52.40;;;;;;4877338;29;20268;-68
2021/03/17 03:18:07;;;;;;;0.47;0.47;;;17.10;52.50;;;;;;4861628;29;20343;-67
2021/03/17 03:20:34;;;;;;;0.50;0.50;;;17.00;52.40;;;;;;4877367;29;20380;-74
2021/03/17 03:22:59;;;;;;;0.40;0.40;;;17.00;52.40;;;;;;4877750;29;20173;-68
2021/03/17 03:25:25;;;;;;;0.65;0.52;;;17.10;52.40;;;;;;4876942;29;20192;-67
2021/03/17 03:27:52;;;;;;;0.38;0.38;;;17.00;52.40;;;;;;4877592;29;20173;-65
2021/03/17 03:30:22;;;;;;;0.40;0.40;;;17.00;52.30;;;;;;4877533;29;20213;-72
2021/03/17 03:32:48;;;;;;;0.52;0.50;;;17.00;52.30;;;;;;4877096;29;20188;-67
2021/03/17 03:35:14;;;;;;;0.63;0.63;;;17.00;52.40;;;;;;4877631;29;20177;-69
2021/03/17 03:37:40;;;;;;;0.30;0.30;;;17.00;52.30;;;;;;4877367;29;20650;-68
2021/03/17 03:40:13;;;;;;;0.40;0.40;;;16.90;52.50;;;;;;4876879;29;20229;-67
2021/03/17 03:42:39;;;;;;;0.30;0.30;;;16.90;52.30;;;;;;4877528;29;20264;-67
2021/03/17 03:45:05;;;;;;;0.43;0.43;;;16.90;52.30;;;;;;4878486;29;20269;-75
2021/03/17 03:47:31;;;;;;;0.70;0.70;;;16.90;52.30;;;;;;4876661;29;20231;-65
2021/03/17 03:49:58;;;;;;;0.40;0.40;;;17.00;52.40;;;;;;4877333;29;20746;-65
2021/03/17 03:52:28;;;;;;;0.43;0.43;;;16.90;52.40;;;;;;4879612;29;20311;-74
2021/03/17 03:55:29;;;;;;;0.30;0.30;;;16.90;52.30;;;;;;4878721;29;20225;-66
2021/03/17 03:57:58;;;;;;;0.47;0.40;;;16.90;52.30;;;;;;4875523;29;20607;-66
2021/03/17 04:00:24;;;;;;;0.47;0.47;;;16.90;52.30;;;;;;4864636;29;20177;-75
2021/03/17 04:02:50;;;;;;;0.90;0.50;;;16.90;52.30;;;;;;4865574;29;20184;-74
2021/03/17 04:05:29;;;;;;;0.40;0.40;;;16.90;52.30;;;;;;4865455;29;20517;-69
2021/03/17 04:07:55;;;;;;;0.43;0.43;;;16.90;52.30;;;;;;4880302;29;20252;-75
2021/03/17 04:10:22;;;;;;;0.50;0.50;;;16.80;52.30;;;;;;4849508;29;20248;-75
2021/03/17 04:12:48;;;;;;;0.75;0.43;;;16.90;52.30;;;;;;4880775;29;20173;-68
2021/03/17 04:15:15;;;;;;;0.45;0.40;;;16.90;52.30;;;;;;4864747;29;20276;-68
2021/03/17 04:17:52;;;;;;;0.60;0.50;;;16.90;52.40;;;;;;4880550;29;20174;-74
2021/03/17 04:20:20;;;;;;;0.50;0.45;;;16.90;52.40;;;;;;4881913;29;20649;-75
2021/03/17 04:22:45;;;;;;;0.65;0.40;;;16.80;52.40;;;;;;4864685;29;20176;-67
2021/03/17 04:25:12;;;;;;;0.40;0.40;;;16.80;52.30;;;;;;4880513;29;20177;-66
2021/03/17 04:27:38;;;;;;;0.50;0.50;;;16.80;53.00;;;;;;4880291;29;20616;-66
2021/03/17 04:30:05;;;;;;;0.30;0.30;;;16.80;52.40;;;;;;4864131;29;20295;-65
2021/03/17 04:32:30;;;;;;;0.38;0.38;;;16.80;52.40;;;;;;4881310;29;20187;-66
2021/03/17 04:34:57;;;;;;;0.40;0.40;;;16.80;52.40;;;;;;4864831;29;20264;-73
2021/03/17 04:37:22;;;;;;;0.25;0.25;;;16.80;52.40;;;;;;4880779;29;20169;-68
2021/03/17 04:39:49;;;;;;;0.50;0.45;;;16.80;52.30;;;;;;4880068;29;20249;-68
2021/03/17 04:42:15;;;;;;;0.55;0.45;;;16.80;52.40;;;;;;4864829;29;20645;-73
2021/03/17 04:44:41;;;;;;;0.30;0.30;;;16.80;52.40;;;;;;4879381;29;20225;-67
2021/03/17 04:47:06;;;;;;;0.40;0.40;;;16.80;52.50;;;;;;4881290;29;20188;-75
2021/03/17 04:49:32;;;;;;;0.30;0.30;;;16.80;52.40;;;;;;4879227;29;20209;-65
2021/03/17 04:51:58;;;;;;;0.45;0.35;;;16.70;52.30;;;;;;4880004;29;20181;-65
2021/03/17 04:54:24;;;;;;;0.75;0.45;;;16.70;52.40;;;;;;4874921;29;20768;-66
2021/03/17 04:56:49;;;;;;;0.30;0.30;;;16.70;52.50;;;;;;4879357;29;20181;-73
2021/03/17 04:59:20;;;;;;;0.52;0.50;;;16.70;52.40;;;;;;4879949;29;20177;-67
2021/03/17 05:01:45;;;;;;;0.40;0.32;;;16.70;52.40;;;;;;4881127;29;20228;-73
2021/03/17 05:04:11;;;;;;;0.38;0.38;;;16.70;52.40;;;;;;4879169;29;20252;-68
2021/03/17 05:06:37;;;;;;;0.40;0.40;;;16.70;52.40;;;;;;4879109;29;20181;-68
2021/03/17 05:09:03;;;;;;;0.82;0.40;;;16.70;52.50;;;;;;4879803;29;20230;-68
2021/03/17 05:11:29;;;;;;;0.40;0.40;;;16.70;52.50;;;;;;4863238;29;20637;-67
2021/03/17 05:13:54;;;;;;;0.30;0.30;;;16.70;52.40;;;;;;4864023;29;20184;-67
2021/03/17 05:16:20;;;;;;;0.35;0.35;;;16.70;52.50;;;;;;4880594;29;20185;-67
2021/03/17 05:18:48;;;;;;;0.47;0.40;;;16.70;52.40;;;;;;4879092;29;20174;-74
2021/03/17 05:21:14;;;;;;;0.40;0.40;;;16.70;52.50;;;;;;4879510;29;20173;-67
2021/03/17 05:23:39;;;;;;;0.30;0.30;;;16.60;52.40;;;;;;4879216;29;20542;-70
2021/03/17 05:26:05;;;;;;;0.35;0.35;;;16.60;52.40;;;;;;4878904;29;20253;-75
2021/03/17 05:28:31;;;;;;;0.47;0.47;;;16.60;52.40;;;;;;4863741;29;20238;-65
2021/03/17 05:30:56;;;;;;;0.28;0.28;;;16.60;52.40;;;;;;4879313;29;20213;-66
2021/03/17 05:33:24;;;;;;;0.47;0.47;;;16.60;52.40;;;;;;4878487;29;20248;-73
2021/03/17 05:35:50;;;;;;;0.30;0.30;;;16.60;52.40;;;;;;4863558;29;20241;-68
2021/03/17 05:38:15;;;;;;;0.22;0.22;;;16.60;52.40;;;;;;4863822;29;20185;-67
2021/03/17 05:40:41;;;;;;;0.30;0.30;;;16.60;52.40;;;;;;4862849;29;20185;-67
2021/03/17 05:43:07;;;;;;;0.38;0.38;;;16.60;52.40;;;;;;4879306;29;20181;-72
2021/03/17 05:45:34;;;;;;;0.30;0.30;;;16.60;52.40;;;;;;4878849;29;20184;-65
2021/03/17 05:48:00;;;;;;;0.32;0.32;;;16.60;52.40;;;;;;4878521;29;20180;-64
2021/03/17 05:50:25;;;;;;;0.30;0.30;;;16.60;53.00;;;;;;4878811;29;20578;-74
2021/03/17 05:52:51;;;;;;;0.40;0.30;;;16.60;52.40;;;;;;4878144;29;20188;-71
2021/03/17 05:55:17;;;;;;;0.40;0.40;;;16.50;52.40;;;;;;4878992;29;20177;-65
2021/03/17 05:57:43;;;;;;;0.80;0.68;;;16.60;52.40;;;;;;4878688;29;20177;-71
2021/03/17 06:00:13;;;;;;;0.40;0.40;;;16.60;52.40;;;;;;4878436;29;20633;-65
2021/03/17 06:02:39;;;;;;;0.60;0.40;;;16.50;52.30;;;;;;4878581;29;20668;-65
2021/03/17 06:05:06;;;;;;;0.30;0.30;;;16.50;52.40;;;;;;4878684;29;20192;-68
2021/03/17 06:07:42;;;;;;;0.40;0.38;;;16.60;52.40;;;;;;4877916;29;20181;-73
2021/03/17 06:10:09;;;;;;;0.30;0.30;;;16.50;52.40;;;;;;4879668;29;20228;-71
2021/03/17 06:12:35;;;;;;;0.35;0.30;;;16.60;52.50;;;;;;4879587;29;20197;-75
2021/03/17 06:15:01;;;;;;;0.30;0.30;;;16.70;52.50;;;;;;4862335;29;20181;-67
2021/03/17 06:17:26;;;;;;;0.28;0.28;;;16.80;52.50;;;;;;4877578;29;20192;-72
2021/03/17 06:19:58;;;;;;;0.45;0.30;;;17.00;52.30;;;;;;4863096;29;20261;-66
2021/03/17 06:22:24;;;;;;;0.55;0.55;;;17.20;52.10;;;;;;4862193;29;20173;-65
2021/03/17 06:24:49;;;;;;;0.30;0.30;;;17.50;51.70;;;;;;4878263;29;20183;-71
2021/03/17 06:27:15;;;;;;;0.30;0.30;;;17.70;51.40;;;;;;4879772;29;20245;-66
2021/03/17 06:29:40;;;;;;;0.30;0.30;;;17.90;51.10;;;;;;4878601;29;20700;-72
2021/03/17 06:32:10;;;;;;;0.20;0.20;;;18.10;50.80;;;;;;4878390;29;20175;-65
2021/03/17 06:34:49;;;;;;;0.30;0.30;;;18.30;50.40;;;;;;4862471;29;20177;-69
2021/03/17 06:37:15;;;;;;;0.30;0.30;;;18.50;49.90;;;;;;4877856;29;20177;-70
2021/03/17 06:39:40;;;;;;;0.77;0.20;;;18.60;49.70;;;;;;4877943;29;20226;-66
2021/03/17 06:42:06;;;;;;;0.20;0.20;;;18.60;49.60;;;;;;4878680;29;20516;-74
2021/03/17 06:44:32;;;;;;;0.28;0.20;;;18.70;49.40;;;;;;4877887;29;20169;-66
2021/03/17 06:47:20;;;;;;;0.30;0.30;;;18.70;49.30;;;;;;4879204;29;20241;-74
2021/03/17 06:49:50;;;;;;;0.10;0.10;;;18.80;49.30;;;;;;4877476;29;20201;-63
2021/03/17 06:52:30;;;;;;;0.20;0.20;;;18.80;49.20;;;;;;4878096;29;20180;-64
2021/03/17 06:55:14;;;;;;;0.22;0.22;;;18.80;49.20;;;;;;4861700;29;20635;-66
2021/03/17 06:57:44;;;;;;;0.20;0.20;;;18.90;49.20;;;;;;4877055;29;20667;-65
2021/03/17 07:00:25;;;;;;;0.25;0.20;;;18.90;49.10;;;;;;4877836;29;20173;-64
2021/03/17 07:03:09;;;;;;;0.35;0.25;;;18.90;49.20;;;;;;4879061;29;20173;-71
2021/03/17 07:05:45;;;;;;;0.28;0.20;;;18.80;49.30;;;;;;4878730;29;20173;-66
2021/03/17 07:08:15;;;;;;;0.60;0.30;;;18.70;49.40;;;;;;4877731;29;20218;-66
2021/03/17 07:10:44;;;;;;;0.20;0.20;;;18.60;49.60;;;;;;4876850;29;20224;-67
2021/03/17 07:13:14;;;;;;;0.20;0.20;;;18.60;49.80;;;;;;4878825;29;20192;-72
2021/03/17 07:15:40;;;;;;;0.20;0.20;;;18.50;49.90;;;;;;4877399;29;20173;-66
2021/03/17 07:18:18;;;;;;;0.30;0.30;;;18.40;50.10;;;;;;4877210;29;20188;-65
2021/03/17 07:20:57;;;;;;;0.20;0.20;;;18.30;50.20;;;;;;4877875;29;20169;-65
2021/03/17 07:23:33;;;;;;;0.30;0.30;;;18.20;50.30;;;;;;4877441;29;20169;-66
2021/03/17 07:26:29;;;;;;;0.22;0.22;;;18.20;50.50;;;;;;4878224;29;20191;-65
2021/03/17 07:29:02;;;;;;;0.40;0.30;;;18.20;50.50;;;;;;4880259;29;20268;-64
2021/03/17 07:31:39;;;;;;;0.20;0.20;;;18.20;50.40;;;;;;4880760;29;20216;-67
2021/03/17 07:34:19;;;;;;;0.20;0.20;;;18.30;50.40;;;;;;4865711;29;20180;-70
2021/03/17 07:36:46;;;;;;;0.35;0.20;;;18.30;50.40;;;;;;4881429;29;20697;-65
2021/03/17 07:39:17;;;;;;;0.20;0.20;;;18.40;50.30;;;;;;4880702;29;20225;-67
2021/03/17 07:41:43;;;;;;;0.77;0.40;;;18.40;50.10;;;;;;4882251;29;20255;-66
2021/03/17 07:44:10;;;;;;;0.30;0.30;;;18.40;50.20;;;;;;4881230;29;20329;-64
2021/03/17 07:46:36;;;;;;;0.20;0.20;;;18.40;50.20;;;;;;4881484;29;20173;-62
2021/03/17 07:49:02;;;;;;;1.77;0.40;;;18.40;50.40;;;;;;4881124;29;20215;-69
2021/03/17 07:51:28;;;;;;;1.15;0.73;;;18.30;50.60;;;;;;4882129;29;20414;-62
2021/03/17 07:53:54;;;;;;;3.03;0.77;;;18.20;51.10;;;;;;4880119;29;20228;-62
2021/03/17 07:56:21;;;;;;;2.03;0.47;;;18.20;51.30;;;;;;4865333;29;20242;-63
2021/03/17 07:58:51;;;;;;;2.08;0.80;;;18.20;51.40;;;;;;4882245;29;20543;-63
2021/03/17 08:01:17;;;;;;;2.70;1.10;;;18.20;51.40;;;;;;4880605;29;20170;-63
2021/03/17 08:03:44;;;;;;;2.38;0.93;;;18.20;51.50;;;;;;4880753;29;20234;-79
2021/03/17 08:06:10;;;;;;;1.73;0.93;;;18.30;51.70;;;;;;4880793;29;20229;-76
2021/03/17 08:08:36;;;;;;;2.60;1.30;;;18.30;51.70;;;;;;4880049;29;20181;-63
2021/03/17 08:11:02;;;;;;;2.22;0.57;;;18.30;51.60;;;;;;4880712;29;20732;-62
2021/03/17 08:13:27;;;;;;;1.08;0.90;;;18.30;51.80;;;;;;4880391;29;20700;-62
2021/03/17 08:15:53;;;;;;;2.40;0.93;;;18.30;51.70;;;;;;4880769;29;20185;-62
2021/03/17 08:18:31;;;;;;;2.92;1.13;;;18.20;51.80;;;;;;4880629;29;20177;-62
2021/03/17 08:20:57;;;;;;;2.33;1.25;;;18.10;52.00;;;;;;4881150;29;20293;-64
2021/03/17 08:23:43;;;;;;;1.27;1.02;;;18.10;52.10;;;;;;4880288;29;20209;-70
2021/03/17 08:26:13;;;;;;;1.17;0.77;;;18.20;52.20;;;;;;4874769;29;20196;-62
2021/03/17 08:28:54;;;;;;;3.40;1.17;;;18.20;52.30;;;;;;4870670;29;20200;-62
2021/03/17 08:31:46;;;;;;;1.17;0.80;;;18.30;52.20;;;;;;4871005;29;20256;-64
2021/03/17 08:34:18;;;;;;;2.28;0.98;;;18.40;52.10;;;;;;4862785;29;20643;-68
2021/03/17 08:37:04;;;;;;;2.65;1.30;;;18.40;52.00;;;;;;4862573;29;20182;-63
2021/03/17 08:39:31;;;;;;;3.85;0.98;;;18.40;52.10;;;;;;4860877;29;20194;-63
2021/03/17 08:41:58;;;;;;;1.95;1.00;;;18.30;52.30;;;;;;4861698;29;20273;-62
2021/03/17 08:44:36;;;;;;;1.80;0.90;;;18.20;52.40;;;;;;4862468;29;20665;-72
2021/03/17 08:47:22;;;;;;;2.05;0.88;;;18.10;52.60;;;;;;4862565;29;20186;-62
2021/03/17 08:49:52;;;;;;;3.17;1.10;;;18.00;52.80;;;;;;4861716;29;20644;-62
2021/03/17 08:52:18;;;;;;;1.15;0.80;;;18.00;53.00;;;;;;4862829;29;20181;-72
2021/03/17 08:54:46;;;;;;;2.83;0.88;;;18.00;53.10;;;;;;4845754;29;20297;-68
2021/03/17 08:57:13;;;;;;;1.70;0.77;;;18.00;53.10;;;;;;4861827;29;20674;-66
2021/03/17 08:59:50;;;;;;;3.53;0.80;;;18.00;53.10;;;;;;4861254;29;20212;-63
2021/03/17 09:02:25;;;;;;;2.88;0.90;;;18.10;53.00;;;;;;4861274;29;20173;-62
2021/03/17 09:05:00;;;;;;;2.45;1.23;;;18.10;52.90;;;;;;4861616;29;20181;-65
2021/03/17 09:07:27;;;;;;;2.30;0.70;;;18.10;52.90;;;;;;4861129;29;20182;-68
2021/03/17 09:09:54;;;;;;;1.75;0.90;;;18.10;52.90;;;;;;4861682;29;20740;-70
2021/03/17 09:12:20;;;;;;;1.48;0.80;;;18.00;53.00;;;;;;4860802;29;20204;-63
2021/03/17 09:14:46;;;;;;;1.20;1.10;;;18.10;52.90;;;;;;4861051;29;20174;-63
2021/03/17 09:17:23;;;;;;;1.13;0.63;;;18.00;53.00;;;;;;4860470;29;20182;-64
2021/03/17 09:19:56;;;;;;;1.30;1.10;;;18.00;53.10;;;;;;4860995;29;20177;-63
2021/03/17 09:22:31;;;;;;;1.77;0.70;;;18.00;53.80;;;;;;4860679;29;20179;-63
2021/03/17 09:24:56;;;;;;;1.30;0.88;;;18.10;53.10;;;;;;4861410;29;20181;-72
2021/03/17 09:27:22;;;;;;;1.98;0.90;;;18.10;53.10;;;;;;4861693;29;20178;-68
2021/03/17 09:29:48;;;;;;;3.08;0.88;;;18.20;53.00;;;;;;4861961;29;20213;-65
2021/03/17 09:32:14;;;;;;;1.42;0.80;;;18.20;53.50;;;;;;4861387;29;20174;-64
2021/03/17 09:34:40;;;;;;;3.10;0.90;;;18.20;52.90;;;;;;4861547;29;20580;-67
2021/03/17 09:37:06;;;;;;;2.15;1.10;;;18.10;53.00;;;;;;4860727;29;20174;-72
2021/03/17 09:39:33;;;;;;;3.03;0.90;;;18.00;53.10;;;;;;4859926;29;20174;-62
2021/03/17 09:41:58;;;;;;;1.23;0.70;;;18.00;53.30;;;;;;4861689;29;20185;-64
2021/03/17 09:44:24;;;;;;;2.47;0.90;;;17.90;53.40;;;;;;4860214;29;20544;-63
2021/03/17 09:46:53;;;;;;;2.00;0.85;;;17.90;53.50;;;;;;4861097;29;20205;-62
2021/03/17 09:49:23;;;;;;;2.65;1.05;;;17.90;53.40;;;;;;4860616;29;20182;-61
2021/03/17 09:51:59;;;;;;;2.42;0.82;;;18.10;53.20;;;;;;4860809;29;20276;-63
2021/03/17 09:54:29;;;;;;;0.93;0.70;;;18.10;53.10;;;;;;4861073;29;20221;-71
2021/03/17 09:56:56;;;;;;;1.65;0.75;;;18.10;53.10;;;;;;4860263;29;20216;-71
2021/03/17 09:59:28;;;;;;;1.00;0.70;;;18.10;53.10;;;;;;4859495;29;20225;-71
2021/03/17 10:02:04;;;;;;;2.78;0.70;;;18.10;53.20;;;;;;4861419;29;20177;-66
2021/03/17 10:04:43;;;;;;;2.05;0.85;;;18.10;53.20;;;;;;4861166;29;20177;-69
2021/03/17 10:07:11;;;;;;;1.65;0.68;;;18.00;53.40;;;;;;4860638;29;20174;-70
2021/03/17 10:09:37;;;;;;;5.95;1.50;;;18.00;53.60;;;;;;4859721;29;20846;-62
2021/03/17 10:12:08;;;;;;;4.75;1.10;;;18.00;53.60;;;;;;4860124;29;20186;-61
2021/03/17 10:14:35;;;;;;;6.07;1.40;;;17.90;53.30;;;;;;4858907;29;20548;-70
2021/03/17 10:17:02;;;;;;;2.90;1.00;;;17.90;53.60;;;;;;4861051;29;20195;-64
2021/03/17 10:19:28;;;;;;;3.30;1.15;;;18.00;53.60;;;;;;4844243;29;20193;-60
2021/03/17 10:21:54;;;;;;;3.75;1.10;;;18.00;53.60;;;;;;4860313;29;20178;-69
2021/03/17 10:24:30;;;;;;;2.72;0.70;;;18.00;53.60;;;;;;4859623;29;20174;-65
2021/03/17 10:26:57;;;;;;;2.20;1.10;;;17.90;53.60;;;;;;4859846;29;20184;-61
2021/03/17 10:29:22;;;;;;;3.42;1.05;;;17.90;53.60;;;;;;4859250;29;20672;-62
2021/03/17 10:31:48;;;;;;;2.95;0.98;;;17.90;53.60;;;;;;4860628;29;20226;-62
2021/03/17 10:34:14;;;;;;;2.00;0.70;;;17.90;53.60;;;;;;4843720;29;20253;-70
2021/03/17 10:36:40;;;;;;;3.55;1.17;;;17.90;53.70;;;;;;4860337;29;20638;-61
2021/03/17 10:39:06;;;;;;;2.22;1.02;;;17.90;53.60;;;;;;4859465;29;20568;-67
2021/03/17 10:41:45;;;;;;;2.28;1.00;;;17.80;53.70;;;;;;4843273;29;20206;-60
2021/03/17 10:44:21;;;;;;;1.45;1.05;;;17.80;53.80;;;;;;4843809;29;20182;-69
2021/03/17 10:47:08;;;;;;;1.88;1.00;;;17.90;53.80;;;;;;4844212;29;20265;-72
2021/03/17 10:49:36;;;;;;;2.40;0.88;;;18.00;53.70;;;;;;4858253;29;20186;-71
2021/03/17 10:52:02;;;;;;;2.97;0.90;;;18.00;53.70;;;;;;4843870;29;20242;-61
2021/03/17 10:54:36;;;;;;;1.90;0.95;;;18.10;53.50;;;;;;4858940;29;20234;-69
2021/03/17 10:57:01;;;;;;;1.48;0.90;;;18.10;53.40;;;;;;4843193;29;20664;-61
2021/03/17 10:59:37;;;;;;;3.40;0.95;;;18.00;53.40;;;;;;4859043;29;20182;-62
2021/03/17 11:02:22;;;;;;;1.00;0.60;;;18.10;53.40;;;;;;4859223;29;20181;-61
2021/03/17 11:05:10;;;;;;;1.48;0.60;;;18.10;53.30;;;;;;4859772;29;20200;-62
2021/03/17 11:07:59;;;;;;;2.35;0.75;;;18.10;53.30;;;;;;4859190;29;20182;-65
2021/03/17 11:10:50;;;;;;;4.95;1.08;;;18.00;53.60;;;;;;4859265;29;20202;-63
2021/03/17 11:13:19;;;;;;;2.42;1.23;;;18.00;53.50;;;;;;4843847;29;20298;-66
2021/03/17 11:15:55;;;;;;;1.85;0.95;;;18.10;53.60;;;;;;4860207;29;20184;-62
2021/03/17 11:18:22;;;;;;;3.08;0.70;;;18.00;53.60;;;;;;4842692;29;20209;-65
2021/03/17 11:20:48;;;;;;;2.78;1.10;;;18.00;53.60;;;;;;4859795;29;20174;-62
2021/03/17 11:23:19;;;;;;;1.80;0.90;;;18.00;53.70;;;;;;4843274;29;20508;-63
2021/03/17 11:25:45;;;;;;;4.30;1.00;;;17.90;53.60;;;;;;4843415;29;20182;-68
2021/03/17 11:28:15;;;;;;;1.73;0.88;;;18.00;53.60;;;;;;4858824;29;20599;-72
2021/03/17 11:30:42;;;;;;;1.08;0.73;;;18.00;53.70;;;;;;4857860;29;20209;-71
2021/03/17 11:33:10;;;;;;;2.22;0.80;;;17.90;53.60;;;;;;4858974;29;20195;-62
2021/03/17 11:35:35;;;;;;;2.50;1.10;;;18.00;53.70;;;;;;4843084;29;20554;-65
2021/03/17 11:38:01;;;;;;;0.75;0.55;;;18.00;53.80;;;;;;4859582;29;20651;-72
2021/03/17 11:40:26;;;;;;;1.42;0.80;;;18.00;53.60;;;;;;4859669;29;20205;-66
2021/03/17 11:42:52;;;;;;;1.85;0.57;;;17.90;53.60;;;;;;4843503;29;20649;-64
2021/03/17 11:45:17;;;;;;;3.58;0.90;;;18.00;53.60;;;;;;4858376;29;20552;-65
2021/03/17 11:47:43;;;;;;;1.77;0.77;;;17.90;53.80;;;;;;4859897;29;20178;-63
2021/03/17 11:50:09;;;;;;;1.85;0.90;;;17.90;53.70;;;;;;4858815;29;20202;-67
2021/03/17 11:52:35;;;;;;;2.70;0.80;;;17.80;53.70;;;;;;4859086;29;20181;-60
2021/03/17 11:55:00;;;;;;;2.28;1.02;;;17.80;53.80;;;;;;4864987;29;20181;-65
2021/03/17 11:57:26;;;;;;;3.83;0.75;;;17.80;53.80;;;;;;4877579;29;20309;-62
2021/03/17 11:59:51;;;;;;;2.47;0.70;;;17.80;53.90;;;;;;4860730;29;20295;-71
2021/03/17 12:02:17;;;;;;;3.40;0.68;;;17.80;54.00;;;;;;4861302;29;20177;-63
2021/03/17 12:04:42;;;;;;;1.85;0.75;;;17.90;54.10;;;;;;4877486;29;20185;-62
2021/03/17 12:07:08;;;;;;;3.08;0.80;;;18.10;54.10;;;;;;4877603;29;20190;-66
2021/03/17 12:09:34;;;;;;;1.92;0.68;;;18.30;53.70;;;;;;4877997;29;20170;-62
2021/03/17 12:11:59;;;;;;;1.92;0.88;;;18.60;53.10;;;;;;4861825;29;20180;-62
2021/03/17 12:14:25;;;;;;;2.60;1.00;;;19.00;53.00;;;;;;4860574;29;20181;-62
2021/03/17 12:16:50;;;;;;;2.78;0.80;;;19.30;51.80;;;;;;4864371;29;20181;-62
2021/03/17 12:19:16;;;;;;;1.60;0.82;;;19.50;51.30;;;;;;4864732;29;20173;-63
2021/03/17 12:21:41;;;;;;;3.63;0.80;;;19.70;50.90;;;;;;4880959;29;20220;-63
2021/03/17 12:24:07;;;;;;;1.35;0.70;;;19.90;50.70;;;;;;4864883;29;20537;-62
2021/03/17 12:26:33;;;;;;;0.95;0.70;;;19.90;50.80;;;;;;4864376;29;20189;-62
2021/03/17 12:28:58;;;;;;;3.15;0.70;;;20.10;50.30;;;;;;4864998;29;20180;-64
2021/03/17 12:31:25;;;;;;;0.70;0.60;;;20.20;50.10;;;;;;4864549;29;20221;-62
2021/03/17 12:33:51;;;;;;;0.70;0.65;;;20.20;50.00;;;;;;4880980;29;20173;-66
2021/03/17 12:36:16;;;;;;;1.65;0.82;;;20.30;49.80;;;;;;4833936;29;20208;-61
2021/03/17 12:38:42;;;;;;;2.38;0.77;;;20.20;49.90;;;;;;4880982;29;20188;-64
2021/03/17 12:41:08;;;;;;;2.40;1.10;;;20.30;49.90;;;;;;4864347;29;20185;-76
2021/03/17 12:43:33;;;;;;;1.58;0.55;;;20.30;49.70;;;;;;4881064;29;20177;-65
2021/03/17 12:45:59;;;;;;;1.33;0.60;;;20.40;49.60;;;;;;4864708;29;20591;-64
2021/03/17 12:48:24;;;;;;;2.15;0.90;;;20.50;49.50;;;;;;4880803;29;20260;-63
2021/03/17 12:50:50;;;;;;;5.07;0.90;;;20.50;49.60;;;;;;4881039;29;20217;-63
2021/03/17 12:53:16;;;;;;;1.95;0.82;;;20.40;49.50;;;;;;4849126;29;20257;-80
2021/03/17 12:55:41;;;;;;;1.80;0.70;;;20.40;49.50;;;;;;4881570;29;20240;-61
2021/03/17 12:58:07;;;;;;;1.55;0.93;;;20.40;50.30;;;;;;4886446;29;20188;-62